Flood From: 21-02-2018 18:00 Until: 22-02-2018 16:00 warning for: Flood Level: Yellow info button

Although rather usual in this region, locally or potentially dangerous phenomena are expected. (such as local winds, summer thunderstorms, rising streams or high waves) Be aware and pay attention to the latest weather updates, especially if you carry out activities exposed to weather or close to a stream or shoreline. 


Meteo18 Weather Cam more information Meteo18 Weather Cam


Thunder radar more information blitzortung!


Rain radar more information rain snow radar


Visit our other weather sites:

Template documentation
and downloads

And another site



Weather Underground History page Text

Daily Summary for May 13, 2017 Units:  English    Metric   Both
« Previous Day
Next Day »
Daily Weekly Monthly Yearly Custom
  High: Low: Average:
Temperature: TemperatureC °F 8.4 °F 13.7 °F
Dew Point: DewpointC °F 8.0 °F 11.2 °F
Humidity: Humidity % 66 % 86 %
Wind Speed: WindSpeedKMH mph 0.0 mph 4 mph
Wind Gust: WindSpeedGustKMH mph - -
Wind:- - SW
Pressure: PressurehPa in 1009.4 in -
Precipitation: 1.0 in    
Historical Graphs
 
 
Tabular Data for May 13, 2017
Time Temperature Dew Point Pressure Wind Wind Speed Wind Gust Humidity Rainfall Rate (Hourly)
TemperatureC °F DewpointC °F PressurehPa in Calm     Humidity % HourlyPrecipMM in
00:02 11.8 °F 11.2 °F 1009.4 in Calm     96 % 0.0 in
00:07 11.8 °F 11.3 °F 1009.4 in Calm     97 % 0.0 in
00:12 11.7 °F 11.1 °F 1009.4 in Calm     96 % 0.0 in
00:17 11.6 °F 11.0 °F 1009.4 in Calm     96 % 0.0 in
00:22 11.5 °F 10.9 °F 1009.4 in Calm     96 % 0.0 in
00:27 11.4 °F 10.8 °F 1009.4 in Calm     96 % 0.0 in
00:32 11.2 °F 10.6 °F 1009.4 in Calm     96 % 0.0 in
00:42 11.4 °F 10.9 °F 1009.4 in Calm     97 % 0.0 in
00:47 11.4 °F 10.9 °F 1009.4 in Calm     97 % 0.0 in
00:52 11.3 °F 10.8 °F 1009.4 in Calm     97 % 0.0 in
00:57 11.4 °F 10.9 °F 1009.4 in Calm     97 % 0.0 in
01:02 11.4 °F 10.9 °F 1009.4 in Calm     97 % 0.0 in
01:12 11.0 °F 10.4 °F 1009.4 in Calm     96 % 0.3 in
01:17 10.9 °F 10.3 °F 1009.4 in Calm     96 % 0.3 in
01:22 10.8 °F 10.2 °F 1009.4 in Calm     96 % 0.3 in
01:32 10.8 °F 10.3 °F 1009.4 in Calm     97 % 0.3 in
01:42 10.8 °F 10.3 °F 1009.7 in Calm     97 % 0.3 in
01:47 10.7 °F 10.2 °F 1009.7 in Calm     97 % 0.3 in
01:52 10.8 °F 10.3 °F 1009.7 in Calm     97 % 0.3 in
01:57 10.9 °F 10.4 °F 1009.7 in Calm     97 % 0.3 in
02:02 10.9 °F 10.4 °F 1009.4 in Calm     97 % 0.3 in
02:07 10.9 °F 10.4 °F 1009.4 in Calm     97 % 0.0 in
02:12 10.8 °F 10.3 °F 1009.4 in Calm     97 % 0.0 in
02:17 10.6 °F 10.0 °F 1009.4 in Calm     96 % 0.0 in
02:22 10.5 °F 10.0 °F 1009.4 in Calm     97 % 0.0 in
02:32 10.4 °F 9.9 °F 1009.4 in Calm     97 % 0.0 in
02:37 10.3 °F 9.8 °F 1009.7 in Calm     97 % 0.0 in
02:42 10.3 °F 9.8 °F 1009.7 in Calm     97 % 0.0 in
02:47 10.2 °F 9.7 °F 1009.7 in Calm     97 % 0.0 in
02:52 10.1 °F 9.6 °F 1009.7 in Calm     97 % 0.0 in
02:57 10.2 °F 9.7 °F 1009.7 in Calm     97 % 0.0 in
03:02 10.2 °F 9.7 °F 1009.7 in Calm     97 % 0.0 in
03:07 10.2 °F 9.7 °F 1009.7 in Calm     97 % 0.0 in
03:12 10.1 °F 9.6 °F 1009.7 in Calm     97 % 0.0 in
03:17 9.9 °F 9.4 °F 1009.7 in Calm     97 % 0.0 in
03:22 9.8 °F 9.3 °F 1009.7 in Calm     97 % 0.0 in
03:32 9.7 °F 9.2 °F 1009.7 in Calm     97 % 0.0 in
03:42 9.6 °F 9.1 °F 1009.7 in Calm     97 % 0.0 in
03:47 9.6 °F 9.1 °F 1009.7 in Calm     97 % 0.0 in
03:52 9.6 °F 9.1 °F 1009.7 in Calm     97 % 0.0 in
03:57 9.7 °F 9.2 °F 1009.7 in North 1.6 mph   97 % 0.0 in
04:02 9.7 °F 9.2 °F 1009.7 in Calm   1.6 mph 97 % 0.0 in
04:12 9.6 °F 9.1 °F 1009.7 in Calm   1.6 mph 97 % 0.0 in
04:17 9.6 °F 9.1 °F 1009.7 in Calm   1.6 mph 97 % 0.0 in
04:22 9.4 °F 8.9 °F 1009.7 in Calm   1.6 mph 97 % 0.0 in
04:27 9.4 °F 8.9 °F 1010.0 in Calm     97 % 0.0 in
04:32 9.4 °F 8.9 °F 1010.0 in Calm     97 % 0.0 in
04:37 9.5 °F 9.0 °F 1010.0 in Calm     97 % 0.0 in
04:42 9.4 °F 8.9 °F 1010.0 in Calm     97 % 0.0 in
04:47 9.4 °F 8.9 °F 1010.0 in Calm     97 % 0.0 in
04:52 9.2 °F 8.7 °F 1010.0 in Calm     97 % 0.0 in
04:57 9.1 °F 8.6 °F 1010.0 in Calm     97 % 0.0 in
05:02 9.1 °F 8.6 °F 1010.0 in Calm     97 % 0.0 in
05:12 9.0 °F 8.5 °F 1010.0 in Calm     97 % 0.0 in
05:17 8.9 °F 8.4 °F 1010.0 in Calm     97 % 0.0 in
05:22 8.7 °F 8.3 °F 1010.0 in Calm     97 % 0.0 in
05:27 8.7 °F 8.3 °F 1010.0 in Calm     97 % 0.0 in
05:32 8.8 °F 8.3 °F 1010.0 in Calm     97 % 0.0 in
05:37 8.8 °F 8.3 °F 1010.0 in Calm     97 % 0.0 in
05:42 8.8 °F 8.3 °F 1010.4 in Calm     97 % 0.0 in
05:47 8.6 °F 8.2 °F 1010.4 in Calm     97 % 0.3 in
05:52 8.6 °F 8.2 °F 1010.4 in Calm     97 % 0.3 in
05:57 8.7 °F 8.3 °F 1010.4 in Calm     97 % 0.3 in
06:02 8.4 °F 8.0 °F 1010.4 in Calm     97 % 0.3 in
06:07 8.4 °F 8.0 °F 1010.7 in Calm     97 % 0.3 in
06:12 8.7 °F 8.3 °F 1010.7 in Calm     97 % 0.3 in
06:17 8.8 °F 8.5 °F 1010.7 in Calm     98 % 0.5 in
06:22 8.9 °F 8.6 °F 1010.7 in Calm     98 % 0.5 in
06:27 9.1 °F 8.8 °F 1010.7 in Calm     98 % 0.5 in
06:32 9.1 °F 8.8 °F 1011.1 in Calm     98 % 0.5 in
06:42 9.1 °F 8.6 °F 1011.1 in Calm     97 % 0.5 in
06:47 9.2 °F 8.9 °F 1011.1 in Calm     98 % 0.5 in
06:52 9.0 °F 8.5 °F 1011.1 in Calm     97 % 0.5 in
06:57 8.8 °F 8.3 °F 1011.1 in Calm     97 % 0.5 in
07:02 8.8 °F 8.3 °F 1011.1 in Calm     97 % 0.5 in
07:07 8.7 °F 8.3 °F 1011.4 in Calm     97 % 0.5 in
07:12 8.7 °F 8.3 °F 1011.4 in Calm     97 % 0.5 in
07:17 8.7 °F 8.3 °F 1011.4 in Calm     97 % 0.0 in
07:22 8.7 °F 8.3 °F 1011.4 in Calm     97 % 0.0 in
07:32 8.8 °F 8.3 °F 1011.7 in Calm     97 % 0.0 in
07:37 9.1 °F 8.8 °F 1011.7 in Calm     98 % 0.0 in
07:42 9.3 °F 9.0 °F 1011.7 in Calm     98 % 0.0 in
07:47 9.6 °F 9.3 °F 1012.1 in Calm     98 % 0.0 in
07:57 10.1 °F 9.8 °F 1012.1 in SW 3.2 mph 4.8 mph 98 % 0.0 in
08:02 10.2 °F 9.9 °F 1012.1 in Calm   4.8 mph 98 % 0.0 in
08:07 10.6 °F 10.3 °F 1012.1 in Calm   4.8 mph 98 % 0.0 in
08:12 11.1 °F 10.8 °F 1012.1 in SW 3.2 mph 4.8 mph 98 % 0.0 in
08:17 11.3 °F 11.0 °F 1012.1 in SW 3.2 mph 4.8 mph 98 % 0.0 in
08:27 11.9 °F 11.6 °F 1012.4 in SW 4.8 mph 8.0 mph 98 % 0.0 in
08:32 12.2 °F 11.9 °F 1012.4 in West 4.8 mph 8.0 mph 98 % 0.0 in
08:42 12.6 °F 12.1 °F 1012.4 in SW 6.4 mph 9.7 mph 97 % 0.0 in
08:47 12.7 °F 12.2 °F 1012.8 in West 6.4 mph 9.7 mph 97 % 0.0 in
08:57 12.8 °F 12.3 °F 1012.8 in WNW 6.4 mph 9.7 mph 97 % 0.0 in
09:02 12.9 °F 12.4 °F 1012.8 in SW 4.8 mph 9.7 mph 97 % 0.0 in
09:12 13.1 °F 12.5 °F 1012.8 in SW 3.2 mph 12.9 mph 96 % 0.3 in
09:17 13.2 °F 12.6 °F 1012.8 in WSW 3.2 mph 9.7 mph 96 % 0.3 in
09:27 13.6 °F 12.8 °F 1012.8 in SW 4.8 mph 8.0 mph 95 % 0.3 in
09:32 13.9 °F 12.9 °F 1012.8 in WSW 4.8 mph 8.0 mph 94 % 0.3 in
09:37 14.2 °F 13.1 °F 1013.1 in WNW 6.4 mph 8.0 mph 93 % 0.3 in
09:42 14.4 °F 13.3 °F 1013.1 in WSW 3.2 mph 8.0 mph 93 % 0.3 in
09:47 14.9 °F 13.4 °F 1013.1 in SW 4.8 mph 9.7 mph 91 % 0.3 in
09:52 14.9 °F 13.1 °F 1013.4 in SW 6.4 mph 9.7 mph 89 % 0.3 in
09:57 14.9 °F 13.1 °F 1013.4 in WSW 9.7 mph 12.9 mph 89 % 0.3 in
10:02 14.8 °F 12.7 °F 1013.4 in WSW 12.9 mph 14.5 mph 87 % 0.3 in
10:12 14.7 °F 12.4 °F 1013.8 in WSW 12.9 mph 20.9 mph 86 % 0.0 in
10:22 14.6 °F 12.1 °F 1013.8 in WSW 12.9 mph 20.9 mph 85 % 0.0 in
10:27 14.6 °F 12.1 °F 1013.8 in WSW 8.0 mph 20.9 mph 85 % 0.0 in
10:32 14.7 °F 12.0 °F 1013.8 in West 8.0 mph 20.9 mph 84 % 0.0 in
10:37 14.9 °F 12.6 °F 1013.8 in West 8.0 mph 20.9 mph 86 % 0.0 in
10:42 15.1 °F 12.4 °F 1014.1 in WNW 8.0 mph 17.7 mph 84 % 0.0 in
10:47 14.9 °F 12.0 °F 1014.1 in WSW 8.0 mph 17.7 mph 83 % 0.0 in
10:57 15.2 °F 12.1 °F 1014.4 in West 11.3 mph 16.1 mph 82 % 0.0 in
11:02 15.2 °F 12.0 °F 1014.4 in WSW 6.4 mph 16.1 mph 81 % 0.0 in
11:12 15.2 °F 12.0 °F 1014.4 in West 4.8 mph 16.1 mph 81 % 0.0 in
11:17 15.3 °F 12.4 °F 1014.4 in WSW 9.7 mph 19.3 mph 83 % 0.0 in
11:22 15.4 °F 12.5 °F 1014.4 in SSW 1.6 mph 19.3 mph 83 % 0.0 in
11:32 15.4 °F 12.5 °F 1014.4 in WSW 11.3 mph 17.7 mph 83 % 0.0 in
11:42 15.6 °F 12.2 °F 1014.4 in West 4.8 mph 17.7 mph 80 % 0.0 in
11:47 15.5 °F 12.3 °F 1014.4 in West 3.2 mph 16.1 mph 81 % 0.0 in
11:57 15.7 °F 12.6 °F 1014.8 in SW 8.0 mph 14.5 mph 82 % 0.0 in
12:02 15.7 °F 12.6 °F 1014.8 in WSW 8.0 mph 14.5 mph 82 % 0.0 in
12:07 15.8 °F 12.4 °F 1014.8 in SSW 11.3 mph 14.5 mph 80 % 0.0 in
12:12 15.9 °F 12.8 °F 1014.8 in West 6.4 mph 16.1 mph 82 % 0.0 in
12:17 15.9 °F 12.5 °F 1015.1 in SW 11.3 mph 16.1 mph 80 % 0.0 in
12:22 15.8 °F 12.2 °F 1015.1 in WSW 8.0 mph 16.1 mph 79 % 0.0 in
12:32 16.0 °F 12.4 °F 1015.1 in South 8.0 mph 19.3 mph 79 % 0.0 in
12:37 16.2 °F 12.6 °F 1015.1 in SW 16.1 mph 19.3 mph 79 % 0.0 in
12:42 16.2 °F 12.4 °F 1015.1 in SSW 11.3 mph 22.5 mph 78 % 0.0 in
12:52 16.1 °F 13.0 °F 1015.1 in West 8.0 mph 19.3 mph 82 % 0.0 in
12:57 16.2 °F 12.9 °F 1015.1 in SW 3.2 mph 19.3 mph 81 % 0.0 in
13:02 16.2 °F 12.6 °F 1015.1 in SW 9.7 mph 16.1 mph 79 % 0.0 in
13:07 16.4 °F 12.9 °F 1015.1 in SSE 9.7 mph 17.7 mph 80 % 0.0 in
13:12 16.3 °F 12.7 °F 1015.1 in SW 12.9 mph 17.7 mph 79 % 0.0 in
13:17 16.5 °F 13.2 °F 1015.1 in South 14.5 mph 17.7 mph 81 % 0.0 in
13:22 16.5 °F 12.5 °F 1015.1 in WNW 3.2 mph 17.7 mph 77 % 0.0 in
13:27 16.6 °F 12.6 °F 1015.1 in SW 14.5 mph 17.7 mph 77 % 0.0 in
13:32 16.7 °F 12.6 °F 1015.1 in SSW 4.8 mph 19.3 mph 77 % 0.0 in
13:37 17.1 °F 13.2 °F 1015.1 in SW 14.5 mph 20.9 mph 78 % 0.0 in
13:42 17.2 °F 13.3 °F 1015.1 in SSW 8.0 mph 20.9 mph 78 % 0.0 in
13:47 17.5 °F 13.0 °F 1015.1 in WSW 12.9 mph 17.7 mph 75 % 0.0 in
13:52 17.6 °F 12.7 °F 1015.1 in South 11.3 mph 20.9 mph 73 % 0.0 in
13:57 17.4 °F 12.5 °F 1015.1 in South 8.0 mph 20.9 mph 73 % 0.0 in
14:02 17.6 °F 13.3 °F 1015.1 in WSW 9.7 mph 22.5 mph 76 % 0.0 in
14:12 18.1 °F 13.4 °F 1015.1 in SW 11.3 mph 20.9 mph 74 % 0.0 in
14:17 17.9 °F 13.0 °F 1015.1 in SSE 11.3 mph 17.7 mph 73 % 0.0 in
14:22 17.8 °F 13.1 °F 1015.1 in WSW 16.1 mph 19.3 mph 74 % 0.0 in
14:32 17.8 °F 13.1 °F 1015.1 in WSW 6.4 mph 19.3 mph 74 % 0.0 in
14:37 17.9 °F 12.8 °F 1015.1 in West 6.4 mph 19.3 mph 72 % 0.0 in
14:42 17.8 °F 12.7 °F 1015.1 in WSW 8.0 mph 19.3 mph 72 % 0.0 in
14:47 17.7 °F 11.7 °F 1015.1 in West 6.4 mph 14.5 mph 68 % 0.0 in
14:52 17.9 °F 12.8 °F 1015.1 in WSW 4.8 mph 16.1 mph 72 % 0.0 in
14:57 17.9 °F 12.1 °F 1015.1 in SW 12.9 mph 16.1 mph 69 % 0.0 in
15:02 18.2 °F 12.6 °F 1015.1 in SSW 4.8 mph 16.1 mph 70 % 0.0 in
15:12 18.1 °F 11.9 °F 1015.1 in SW 8.0 mph 19.3 mph 67 % 0.0 in
15:17 18.0 °F 12.7 °F 1015.5 in SSW 8.0 mph 19.3 mph 71 % 0.0 in
15:22 17.9 °F 12.4 °F 1015.5 in WSW 11.3 mph 19.3 mph 70 % 0.0 in
15:32 17.8 °F 12.3 °F 1015.5 in SW 8.0 mph 19.3 mph 70 % 0.0 in
15:37 17.7 °F 12.2 °F 1015.5 in SW 9.7 mph 19.3 mph 70 % 0.0 in
15:42 17.7 °F 12.4 °F 1015.5 in SSW 9.7 mph 16.1 mph 71 % 0.0 in
15:52 17.7 °F 12.8 °F 1015.5 in SSW 8.0 mph 12.9 mph 73 % 0.0 in
15:57 17.7 °F 12.4 °F 1015.5 in SW 6.4 mph 12.9 mph 71 % 0.0 in
16:02 17.7 °F 12.8 °F 1015.5 in WSW 8.0 mph 14.5 mph 73 % 0.0 in
16:07 17.7 °F 12.6 °F 1015.5 in SSW 8.0 mph 14.5 mph 72 % 0.0 in
16:12 17.8 °F 12.9 °F 1015.5 in SSW 12.9 mph 14.5 mph 73 % 0.0 in
16:17 17.7 °F 12.4 °F 1015.5 in SSW 16.1 mph 20.9 mph 71 % 0.0 in
16:22 17.6 °F 12.7 °F 1015.5 in SW 6.4 mph 20.9 mph 73 % 0.0 in
16:27 17.7 °F 12.6 °F 1015.5 in SSW 8.0 mph 20.9 mph 72 % 0.0 in
16:32 17.8 °F 12.7 °F 1015.5 in SW 6.4 mph 17.7 mph 72 % 0.0 in
16:37 17.8 °F 12.9 °F 1015.5 in SSW 6.4 mph 16.1 mph 73 % 0.0 in
16:42 17.9 °F 13.2 °F 1015.5 in SW 8.0 mph 16.1 mph 74 % 0.0 in
16:52 17.7 °F 12.6 °F 1015.5 in SW 8.0 mph 17.7 mph 72 % 0.0 in
16:57 17.7 °F 12.4 °F 1015.5 in SW 4.8 mph 17.7 mph 71 % 0.0 in
17:02 17.6 °F 12.7 °F 1015.8 in South 9.7 mph 17.7 mph 73 % 0.0 in
17:07 17.6 °F 12.7 °F 1015.8 in SW 6.4 mph 14.5 mph 73 % 0.0 in
17:12 17.6 °F 12.7 °F 1015.8 in SW 8.0 mph 14.5 mph 73 % 0.0 in
17:22 17.6 °F 13.1 °F 1015.8 in SSW 8.0 mph 14.5 mph 75 % 0.0 in
17:32 17.5 °F 12.8 °F 1015.8 in SSW 4.8 mph 12.9 mph 74 % 0.0 in
17:37 17.4 °F 13.1 °F 1015.8 in SW 6.4 mph 12.9 mph 76 % 0.0 in
17:42 17.5 °F 13.4 °F 1015.8 in SW 4.8 mph 11.3 mph 77 % 0.0 in
17:47 17.6 °F 12.9 °F 1015.8 in WSW 8.0 mph 12.9 mph 74 % 0.0 in
17:52 17.7 °F 13.0 °F 1015.8 in WSW 12.9 mph 16.1 mph 74 % 0.0 in
17:57 17.8 °F 12.9 °F 1015.8 in South 8.0 mph 16.1 mph 73 % 0.0 in
18:02 17.8 °F 13.1 °F 1015.8 in SSW 8.0 mph 16.1 mph 74 % 0.0 in
18:12 17.7 °F 13.2 °F 1015.8 in WSW 8.0 mph 14.5 mph 75 % 0.0 in
18:17 17.6 °F 12.9 °F 1015.8 in WSW 8.0 mph 14.5 mph 74 % 0.0 in
18:22 17.6 °F 12.9 °F 1015.8 in SW 4.8 mph 14.5 mph 74 % 0.0 in
18:32 17.4 °F 12.7 °F 1015.8 in West 3.2 mph 12.9 mph 74 % 0.0 in
18:42 17.4 °F 12.9 °F 1015.8 in WSW 6.4 mph 11.3 mph 75 % 0.0 in
18:52 17.6 °F 13.3 °F 1015.8 in SSW 6.4 mph 11.3 mph 76 % 0.0 in
18:57 17.6 °F 13.3 °F 1015.8 in SW 4.8 mph 11.3 mph 76 % 0.0 in
19:02 17.6 °F 13.3 °F 1015.8 in SSW 9.7 mph 11.3 mph 76 % 0.0 in
19:07 17.5 °F 13.0 °F 1015.8 in SSW 8.0 mph 11.3 mph 75 % 0.0 in
19:12 17.5 °F 13.2 °F 1016.1 in SSW 8.0 mph 11.3 mph 76 % 0.0 in
19:17 17.4 °F 12.9 °F 1016.1 in SW 6.4 mph 11.3 mph 75 % 0.0 in
19:22 17.4 °F 13.3 °F 1016.1 in SW 8.0 mph 11.3 mph 77 % 0.0 in
19:27 17.4 °F 13.1 °F 1016.1 in SW 4.8 mph 11.3 mph 76 % 0.0 in
19:32 17.3 °F 13.4 °F 1016.1 in SW 8.0 mph 11.3 mph 78 % 0.0 in
19:37 17.3 °F 13.2 °F 1016.1 in SW 4.8 mph 9.7 mph 77 % 0.0 in
19:42 17.2 °F 13.3 °F 1016.1 in SW 1.6 mph 9.7 mph 78 % 0.0 in
19:52 17.4 °F 13.7 °F 1016.1 in SSW 4.8 mph 9.7 mph 79 % 0.0 in
19:57 17.7 °F 13.8 °F 1016.1 in SSW 3.2 mph 8.0 mph 78 % 0.0 in
20:02 17.8 °F 13.7 °F 1016.5 in South 6.4 mph 8.0 mph 77 % 0.0 in
20:07 18.0 °F 13.7 °F 1016.5 in SW 8.0 mph 8.0 mph 76 % 0.0 in
20:12 18.1 °F 13.4 °F 1016.5 in SW 6.4 mph 11.3 mph 74 % 0.0 in
20:17 18.0 °F 12.9 °F 1016.5 in SSW 4.8 mph 12.9 mph 72 % 0.0 in
20:22 17.9 °F 12.1 °F 1016.5 in SW 6.4 mph 12.9 mph 69 % 0.0 in
20:32 17.6 °F 11.2 °F 1016.8 in SW 6.4 mph 11.3 mph 66 % 0.0 in
20:42 17.4 °F 11.7 °F 1016.8 in Calm   8.0 mph 69 % 0.0 in
20:47 17.3 °F 12.0 °F 1016.8 in SSW 3.2 mph 8.0 mph 71 % 0.0 in
20:52 17.1 °F 12.4 °F 1016.8 in Calm   3.2 mph 74 % 0.0 in
20:57 16.7 °F 12.2 °F 1017.2 in SW 1.6 mph 3.2 mph 75 % 0.0 in
21:02 16.3 °F 11.7 °F 1017.2 in SW 3.2 mph 3.2 mph 74 % 0.0 in
21:12 15.8 °F 11.4 °F 1017.2 in Calm   4.8 mph 75 % 0.0 in
21:17 15.5 °F 11.1 °F 1017.2 in SW 1.6 mph 4.8 mph 75 % 0.0 in
21:22 15.4 °F 11.0 °F 1017.5 in Calm   4.8 mph 75 % 0.0 in
21:32 15.1 °F 10.9 °F 1017.5 in Calm   3.2 mph 76 % 0.0 in
21:37 14.7 °F 10.9 °F 1017.5 in Calm   1.6 mph 78 % 0.0 in
21:42 14.4 °F 10.8 °F 1017.5 in Calm     79 % 0.0 in
21:47 14.2 °F 10.6 °F 1017.5 in Calm     79 % 0.0 in
21:52 14.2 °F 10.6 °F 1017.5 in Calm     79 % 0.0 in
21:57 13.8 °F 10.4 °F 1017.5 in Calm     80 % 0.0 in
22:02 13.6 °F 10.4 °F 1017.8 in Calm     81 % 0.0 in
22:07 13.3 °F 10.3 °F 1017.8 in Calm     82 % 0.0 in
22:17 13.1 °F 10.6 °F 1017.8 in Calm     85 % 0.0 in
22:22 12.9 °F 10.4 °F 1017.8 in Calm     85 % 0.0 in
22:32 12.4 °F 10.1 °F 1017.8 in Calm     86 % 0.0 in
22:37 12.3 °F 10.2 °F 1018.2 in Calm     87 % 0.0 in
22:42 12.2 °F 10.3 °F 1017.8 in Calm     88 % 0.0 in
22:47 12.3 °F 10.5 °F 1018.2 in Calm     89 % 0.0 in
22:52 12.4 °F 10.6 °F 1018.2 in Calm     89 % 0.0 in
23:02 12.1 °F 10.3 °F 1018.2 in Calm     89 % 0.0 in
23:07 12.1 °F 10.3 °F 1018.2 in Calm     89 % 0.0 in
23:12 11.9 °F 10.1 °F 1018.2 in Calm   3.2 mph 89 % 0.0 in
23:17 12.0 °F 10.4 °F 1018.2 in Calm   3.2 mph 90 % 0.0 in
23:22 12.3 °F 10.9 °F 1018.2 in Calm   4.8 mph 91 % 0.0 in
23:32 12.7 °F 10.9 °F 1018.5 in SW 3.2 mph 3.2 mph 89 % 0.0 in
23:37 12.7 °F 10.9 °F 1018.5 in SSW 1.6 mph 4.8 mph 89 % 0.0 in
23:42 12.8 °F 11.0 °F 1018.5 in SW 1.6 mph 4.8 mph 89 % 0.0 in
23:47 12.8 °F 11.0 °F 1018.5 in SW 1.6 mph 3.2 mph 89 % 0.0 in
23:52 12.7 °F 10.8 °F 1018.5 in Calm   3.2 mph 88 % 0.0 in
Meteo18
Compliments of Weather Underground - 4 mb

Script developed by  Jim McMurry - jmcmurry@mwt.net Adapted for the template by  Wim van der Kuil - Leuven-Template.eu

You find our weather info also at:

European Weather Network

Weather Underground

Equipment we use:

Weather-station
Davis Vue

Weather-program
Meteobridge

Weather-server
Raspberry PI 2 B+

Provider
1 and 1

Davis Vue

Meteobridge

Raspberry PI 2 B+

1 and 1